createdAt,value
2022-09-14T00:00:36.708Z,4.20
2022-09-14T00:03:03.642Z,4.20
2022-09-14T00:05:30.403Z,4.30
2022-09-14T00:07:57.301Z,4.20
2022-09-14T00:10:24.038Z,5.20
2022-09-14T00:12:50.726Z,4.90
2022-09-14T00:15:17.628Z,5.20
2022-09-14T00:17:44.606Z,5.60
2022-09-14T00:20:11.384Z,5.50
2022-09-14T00:22:38.274Z,4.80
2022-09-14T00:25:06.020Z,5.30
2022-09-14T00:27:33.136Z,5.00
2022-09-14T00:29:59.855Z,5.10
2022-09-14T00:32:26.612Z,5.20
2022-09-14T00:34:53.391Z,5.60
2022-09-14T00:37:20.188Z,5.50
2022-09-14T00:39:46.933Z,6.10
2022-09-14T00:42:16.707Z,5.80
2022-09-14T00:44:44.118Z,6.20
2022-09-14T00:47:12.621Z,6.40
2022-09-14T00:49:42.205Z,5.70
2022-09-14T00:52:14.707Z,5.70
2022-09-14T00:54:44.748Z,5.40
2022-09-14T00:57:12.282Z,5.30
2022-09-14T00:59:42.007Z,6.00
2022-09-14T01:02:11.614Z,6.30
2022-09-14T01:04:38.479Z,5.80
2022-09-14T01:07:16.588Z,6.00
2022-09-14T01:10:01.433Z,4.90
2022-09-14T01:12:51.792Z,5.60
2022-09-14T01:15:34.847Z,6.10
2022-09-14T01:18:27.826Z,5.00
2022-09-14T01:21:02.147Z,4.70
2022-09-14T01:23:34.079Z,4.40
2022-09-14T01:26:11.421Z,5.00
2022-09-14T01:28:57.680Z,5.00
2022-09-14T01:31:35.328Z,4.70
2022-09-14T01:34:08.955Z,5.00
2022-09-14T01:36:39.251Z,3.90
2022-09-14T01:39:07.438Z,4.90
2022-09-14T01:41:35.117Z,4.50
2022-09-14T01:44:09.695Z,4.50
2022-09-14T01:46:45.092Z,4.90
2022-09-14T01:49:16.787Z,4.50
2022-09-14T01:51:48.465Z,4.60
2022-09-14T01:54:23.249Z,4.90
2022-09-14T01:56:55.986Z,4.70
2022-09-14T01:59:29.149Z,4.60
2022-09-14T02:02:05.009Z,4.80
2022-09-14T02:04:46.615Z,4.60
2022-09-14T02:07:14.780Z,4.30
2022-09-14T02:09:41.855Z,4.30
2022-09-14T02:12:08.856Z,4.40
2022-09-14T02:14:35.970Z,4.60
2022-09-14T02:17:02.811Z,4.10
2022-09-14T02:19:36.610Z,4.40
2022-09-14T02:22:03.869Z,4.80
2022-09-14T02:24:30.685Z,5.10
2022-09-14T02:26:59.013Z,4.90
2022-09-14T02:29:25.784Z,4.70
2022-09-14T02:32:01.426Z,4.60
2022-09-14T02:34:59.743Z,5.00
2022-09-14T02:37:56.234Z,4.70
2022-09-14T02:40:58.590Z,4.80
2022-09-14T02:43:49.749Z,5.00
2022-09-14T02:46:37.212Z,3.90
2022-09-14T02:49:28.889Z,4.30
2022-09-14T02:51:57.269Z,4.40
2022-09-14T02:54:39.010Z,4.70
2022-09-14T02:57:06.969Z,4.10
2022-09-14T02:59:33.960Z,4.70
2022-09-14T03:02:01.263Z,5.00
2022-09-14T03:04:28.525Z,4.60
2022-09-14T03:06:55.448Z,3.80
2022-09-14T03:09:22.341Z,4.40
2022-09-14T03:11:49.120Z,4.70
2022-09-14T03:14:16.192Z,3.90
2022-09-14T03:16:42.995Z,4.10
2022-09-14T03:19:12.323Z,3.80
2022-09-14T03:21:40.462Z,4.90
2022-09-14T03:24:07.726Z,4.10
2022-09-14T03:26:36.971Z,4.50
2022-09-14T03:29:05.700Z,4.60
2022-09-14T03:31:33.428Z,4.50
2022-09-14T03:34:02.165Z,4.20
2022-09-14T03:36:30.766Z,4.90
2022-09-14T03:38:59.647Z,4.90
2022-09-14T03:41:26.427Z,5.10
2022-09-14T03:43:53.485Z,5.20
2022-09-14T03:46:22.793Z,5.50
2022-09-14T03:48:50.345Z,5.10
2022-09-14T03:51:17.522Z,4.70
2022-09-14T03:53:45.232Z,5.20
2022-09-14T03:56:16.608Z,6.80
2022-09-14T03:58:44.929Z,7.30
2022-09-14T04:01:15.679Z,7.30
2022-09-14T04:03:43.231Z,7.70
2022-09-14T04:06:10.830Z,6.20
2022-09-14T04:08:40.466Z,7.30
2022-09-14T04:11:12.066Z,7.20
2022-09-14T04:13:39.575Z,7.90
2022-09-14T04:16:06.724Z,6.50
2022-09-14T04:18:34.039Z,6.60
2022-09-14T04:21:08.057Z,6.30
2022-09-14T04:23:56.598Z,5.50
2022-09-14T04:26:26.101Z,5.40
2022-09-14T04:28:53.479Z,5.90
2022-09-14T04:31:20.283Z,6.10
2022-09-14T04:33:49.387Z,5.50
2022-09-14T04:36:21.416Z,5.20
2022-09-14T04:38:48.801Z,6.20
2022-09-14T04:41:18.120Z,5.70
2022-09-14T04:43:46.746Z,5.30
2022-09-14T04:46:15.642Z,5.90
2022-09-14T04:48:43.056Z,5.90
2022-09-14T04:51:17.203Z,5.60
2022-09-14T04:53:47.358Z,4.70
2022-09-14T04:56:15.176Z,3.80
2022-09-14T04:58:49.405Z,5.00
2022-09-14T05:01:28.328Z,4.70
2022-09-14T05:03:56.050Z,4.80
2022-09-14T05:06:24.915Z,5.00
2022-09-14T05:08:53.076Z,3.90
2022-09-14T05:11:22.704Z,4.80
2022-09-14T05:13:50.450Z,4.20
2022-09-14T05:16:28.560Z,4.30
2022-09-14T05:18:57.741Z,4.50
2022-09-14T05:21:25.262Z,4.60
2022-09-14T05:23:55.570Z,4.70
2022-09-14T05:26:23.825Z,3.60
2022-09-14T05:28:52.931Z,3.90
2022-09-14T05:31:20.588Z,4.80
2022-09-14T05:33:47.924Z,4.90
2022-09-14T05:36:14.836Z,4.40
2022-09-14T05:38:41.792Z,5.00
2022-09-14T05:41:13.771Z,5.20
2022-09-14T05:43:41.422Z,4.20
2022-09-14T05:46:13.958Z,4.70
2022-09-14T05:48:41.320Z,5.00
2022-09-14T05:51:14.081Z,5.40
2022-09-14T05:53:41.064Z,6.00
2022-09-14T05:56:11.209Z,6.40
2022-09-14T05:58:39.563Z,6.90
2022-09-14T06:01:08.985Z,6.80
2022-09-14T06:03:35.803Z,5.00
2022-09-14T06:06:04.680Z,5.00
2022-09-14T06:08:31.700Z,5.10
2022-09-14T06:11:04.111Z,5.50
2022-09-14T06:13:31.186Z,5.90
2022-09-14T06:16:02.640Z,6.50
2022-09-14T06:18:31.488Z,6.40
2022-09-14T06:20:58.358Z,5.60
2022-09-14T06:23:27.008Z,6.40
2022-09-14T06:25:55.488Z,5.10
2022-09-14T06:28:23.859Z,4.60
2022-09-14T06:30:51.290Z,4.80
2022-09-14T06:33:19.322Z,4.20
2022-09-14T06:36:02.892Z,3.50
2022-09-14T06:38:30.521Z,3.90
2022-09-14T06:40:59.691Z,3.80
2022-09-14T06:43:28.599Z,4.00
2022-09-14T06:45:58.381Z,2.50
2022-09-14T06:48:26.813Z,3.90
2022-09-14T06:50:53.690Z,4.10
2022-09-14T06:53:21.104Z,3.40
2022-09-14T06:55:47.916Z,3.50
2022-09-14T06:58:14.864Z,3.90
2022-09-14T07:00:41.958Z,3.50
2022-09-14T07:03:09.352Z,3.60
2022-09-14T07:05:36.151Z,3.80
2022-09-14T07:08:02.920Z,3.50
2022-09-14T07:10:29.691Z,3.40
2022-09-14T07:12:58.947Z,3.50
2022-09-14T07:15:25.926Z,3.80
2022-09-14T07:17:53.822Z,3.70
2022-09-14T07:20:20.679Z,3.60
2022-09-14T07:22:47.535Z,3.30
2022-09-14T07:25:14.437Z,3.40
2022-09-14T07:27:41.279Z,3.60
2022-09-14T07:30:08.786Z,3.80
2022-09-14T07:32:35.560Z,3.90
2022-09-14T07:35:02.369Z,3.60
2022-09-14T07:37:30.013Z,3.50
2022-09-14T07:39:57.433Z,3.60
2022-09-14T07:42:24.330Z,3.30
2022-09-14T07:44:51.150Z,3.60
2022-09-14T07:47:17.873Z,3.60
2022-09-14T07:49:44.641Z,3.70
2022-09-14T07:52:11.438Z,3.70
2022-09-14T07:54:38.463Z,3.70
2022-09-14T07:57:05.256Z,4.00
2022-09-14T07:59:36.053Z,3.70
2022-09-14T08:02:07.266Z,3.90
2022-09-14T08:04:36.120Z,4.00
2022-09-14T08:07:04.573Z,4.20
2022-09-14T08:09:31.613Z,3.50
2022-09-14T08:11:58.764Z,4.40
2022-09-14T08:14:26.043Z,4.00
2022-09-14T08:16:53.190Z,3.90
2022-09-14T08:19:21.164Z,3.60
2022-09-14T08:21:48.952Z,4.10
2022-09-14T08:24:19.060Z,4.30
2022-09-14T08:26:48.711Z,4.10
2022-09-14T08:29:17.841Z,4.00
2022-09-14T08:31:47.186Z,4.50
2022-09-14T08:34:16.745Z,4.40
2022-09-14T08:36:45.339Z,4.40
2022-09-14T08:39:14.915Z,4.00
2022-09-14T08:41:54.558Z,4.70
2022-09-14T08:44:23.397Z,4.90
2022-09-14T08:47:10.147Z,4.50
2022-09-14T08:49:51.992Z,4.20
2022-09-14T08:52:24.723Z,4.50
2022-09-14T08:54:56.799Z,5.10
2022-09-14T08:57:51.406Z,4.70
2022-09-14T09:00:23.896Z,6.60
2022-09-14T09:03:22.390Z,6.40
2022-09-14T09:05:57.728Z,6.60
2022-09-14T09:08:48.519Z,7.00
2022-09-14T09:11:20.483Z,5.80
2022-09-14T09:13:50.809Z,6.00
2022-09-14T09:16:23.510Z,6.20
2022-09-14T09:18:56.505Z,4.90
2022-09-14T09:21:35.820Z,4.90
2022-09-14T09:24:37.048Z,4.50
2022-09-14T09:27:12.224Z,3.90
2022-09-14T09:29:39.658Z,4.20
2022-09-14T09:32:17.902Z,4.00
2022-09-14T09:34:55.505Z,4.40
2022-09-14T09:37:38.348Z,3.80
2022-09-14T09:40:15.649Z,4.20
2022-09-14T09:43:10.839Z,3.30
2022-09-14T09:45:55.310Z,3.30
2022-09-14T09:48:27.698Z,3.10
2022-09-14T09:50:59.545Z,3.70
2022-09-14T09:53:26.384Z,3.20
2022-09-14T09:55:53.708Z,3.30
2022-09-14T09:58:23.744Z,3.10
2022-09-14T10:01:02.375Z,3.40
2022-09-14T10:03:33.630Z,3.00
2022-09-14T10:06:12.230Z,3.50
2022-09-14T10:08:43.271Z,3.60
2022-09-14T10:11:31.939Z,3.90
2022-09-14T10:13:59.221Z,3.10
2022-09-14T10:16:34.471Z,4.20
2022-09-14T10:19:03.317Z,4.20
2022-09-14T10:21:31.515Z,3.60
2022-09-14T10:24:19.550Z,4.10
2022-09-14T10:26:46.303Z,4.00
2022-09-14T10:29:40.692Z,4.20
2022-09-14T10:32:19.118Z,4.70
2022-09-14T10:34:46.470Z,4.80
2022-09-14T10:37:32.323Z,5.60
2022-09-14T10:40:16.899Z,5.20
2022-09-14T10:42:51.970Z,5.40
2022-09-14T10:45:27.534Z,5.40
2022-09-14T10:48:17.508Z,5.40
2022-09-14T10:51:07.250Z,4.80
2022-09-14T10:53:51.418Z,5.50
2022-09-14T10:56:23.810Z,5.90
2022-09-14T10:59:15.942Z,4.70
2022-09-14T11:02:01.601Z,5.30
2022-09-14T11:05:00.021Z,5.00
2022-09-14T11:07:39.443Z,5.50
2022-09-14T11:10:17.083Z,5.10
2022-09-14T11:13:09.373Z,4.20
2022-09-14T11:15:55.899Z,4.00
2022-09-14T11:18:33.754Z,3.30
2022-09-14T11:21:16.034Z,2.90
2022-09-14T11:23:51.638Z,3.50
2022-09-14T11:26:31.576Z,3.00
2022-09-14T11:29:09.339Z,3.20
2022-09-14T11:31:55.331Z,3.80
2022-09-14T11:34:40.788Z,3.30
2022-09-14T11:37:13.573Z,3.00
2022-09-14T11:39:46.447Z,3.30
2022-09-14T11:42:33.454Z,3.20
2022-09-14T11:45:07.263Z,3.00
2022-09-14T11:50:20.782Z,3.70
2022-09-14T11:52:52.202Z,3.60
2022-09-14T11:55:20.081Z,3.50
2022-09-14T11:57:48.392Z,5.50
2022-09-14T12:00:24.207Z,4.80
2022-09-14T12:03:15.415Z,4.30
2022-09-14T12:05:45.038Z,4.50
2022-09-14T12:08:31.467Z,5.40
2022-09-14T12:11:33.976Z,5.10
2022-09-14T12:14:32.201Z,4.90
2022-09-14T12:17:38.176Z,4.80
2022-09-14T12:20:27.665Z,5.00
2022-09-14T12:23:21.071Z,4.80
2022-09-14T12:26:07.324Z,6.50
2022-09-14T12:28:36.129Z,4.80
2022-09-14T12:31:03.602Z,3.80
2022-09-14T12:33:33.376Z,3.50
2022-09-14T12:36:06.181Z,4.30
2022-09-14T12:38:42.670Z,4.50
2022-09-14T12:41:11.091Z,4.70
2022-09-14T12:43:39.468Z,4.20
2022-09-14T12:46:22.502Z,4.40
2022-09-14T12:48:53.114Z,4.50
2022-09-14T12:51:29.157Z,4.30
2022-09-14T12:54:00.538Z,3.40
2022-09-14T12:56:35.430Z,3.70
2022-09-14T12:59:18.088Z,4.00
2022-09-14T13:01:58.051Z,2.60
2022-09-14T13:04:28.895Z,2.30
2022-09-14T13:06:58.430Z,1.80
2022-09-14T13:09:27.794Z,1.90
2022-09-14T13:11:58.090Z,1.60
2022-09-14T13:14:30.850Z,1.40
2022-09-14T13:17:01.205Z,1.90
2022-09-14T13:19:32.388Z,1.80
2022-09-14T13:22:02.074Z,1.60
2022-09-14T13:24:29.787Z,1.70
2022-09-14T13:26:59.616Z,1.70
2022-09-14T13:29:28.219Z,1.70
2022-09-14T13:32:02.342Z,1.70
2022-09-14T13:34:37.368Z,1.40
2022-09-14T13:39:36.232Z,1.70
2022-09-14T13:42:04.429Z,2.00
2022-09-14T13:44:35.036Z,1.90
2022-09-14T13:47:04.438Z,2.00
2022-09-14T13:49:32.278Z,2.10
2022-09-14T13:52:19.204Z,2.40
2022-09-14T13:54:47.018Z,2.30
2022-09-14T13:57:19.200Z,2.10
2022-09-14T14:00:08.763Z,2.30
2022-09-14T14:02:37.104Z,2.30
2022-09-14T14:05:06.179Z,2.20
2022-09-14T14:07:34.760Z,2.30
2022-09-14T14:10:04.150Z,2.10
2022-09-14T14:12:34.422Z,2.40
2022-09-14T14:15:04.776Z,2.60
2022-09-14T14:17:35.429Z,2.20
2022-09-14T14:20:38.028Z,2.20
2022-09-14T14:23:06.408Z,2.70
2022-09-14T14:25:42.152Z,2.80
2022-09-14T14:28:19.381Z,2.50
2022-09-14T14:30:46.296Z,2.30
2022-09-14T14:33:15.526Z,1.90
2022-09-14T14:35:42.499Z,2.80
2022-09-14T14:38:10.021Z,3.00
2022-09-14T14:40:37.646Z,3.10
2022-09-14T14:43:05.564Z,3.00
2022-09-14T14:45:36.225Z,3.30
2022-09-14T14:48:04.556Z,3.20
2022-09-14T14:50:34.202Z,3.00
2022-09-14T14:53:01.743Z,3.20
2022-09-14T14:55:31.919Z,3.60
2022-09-14T14:58:02.573Z,3.30
2022-09-14T15:00:32.783Z,3.60
2022-09-14T15:03:00.240Z,3.80
2022-09-14T15:05:27.481Z,3.20
2022-09-14T15:07:56.080Z,3.30
2022-09-14T15:10:25.295Z,3.20
2022-09-14T15:12:52.529Z,3.60
2022-09-14T15:15:24.072Z,3.50
2022-09-14T15:17:52.262Z,3.80
2022-09-14T15:20:20.047Z,4.30
2022-09-14T15:22:48.168Z,4.00
2022-09-14T15:25:17.279Z,4.00
2022-09-14T15:27:44.480Z,3.70
2022-09-14T15:30:12.218Z,4.10
2022-09-14T15:32:40.465Z,3.60
2022-09-14T15:35:10.483Z,3.80
2022-09-14T15:37:37.273Z,3.60
2022-09-14T15:40:05.287Z,4.20
2022-09-14T15:42:47.898Z,4.00
2022-09-14T15:45:15.029Z,3.50
2022-09-14T15:47:42.582Z,4.00
2022-09-14T15:50:10.802Z,3.90
2022-09-14T15:52:38.193Z,4.00
2022-09-14T15:55:07.474Z,4.30
2022-09-14T15:57:35.266Z,4.20
2022-09-14T16:00:07.181Z,4.20
2022-09-14T16:02:41.099Z,4.20
2022-09-14T16:05:08.432Z,4.40
2022-09-14T16:07:35.206Z,3.90
2022-09-14T16:10:01.937Z,4.50
2022-09-14T16:12:28.721Z,4.90
2022-09-14T16:14:55.730Z,4.60
2022-09-14T16:17:22.535Z,4.90
2022-09-14T16:19:49.474Z,5.40
2022-09-14T16:22:16.227Z,9.80
2022-09-14T16:24:42.997Z,8.80
2022-09-14T16:27:09.895Z,6.00
2022-09-14T16:29:36.677Z,5.10
2022-09-14T16:32:03.648Z,6.20
2022-09-14T16:34:31.381Z,13.10
2022-09-14T16:36:58.879Z,18.60
2022-09-14T16:39:29.456Z,7.80
2022-09-14T16:41:59.210Z,23.90
2022-09-14T16:44:27.956Z,34.60
2022-09-14T16:46:57.689Z,18.20
2022-09-14T16:49:27.778Z,36.90
2022-09-14T16:51:56.080Z,8.20
2022-09-14T16:54:25.598Z,11.40
2022-09-14T16:56:57.129Z,8.10
2022-09-14T16:59:24.397Z,24.00
2022-09-14T17:01:54.743Z,9.60
2022-09-14T17:04:23.473Z,12.30
2022-09-14T17:06:51.728Z,10.30
2022-09-14T17:09:22.222Z,10.50
2022-09-14T17:11:49.587Z,7.80
2022-09-14T17:14:19.051Z,18.10
2022-09-14T17:16:47.014Z,8.60
2022-09-14T17:19:14.763Z,9.80
2022-09-14T17:21:43.761Z,29.90
2022-09-14T17:24:11.681Z,19.50
2022-09-14T17:26:38.705Z,6.20
2022-09-14T17:29:06.459Z,9.60
2022-09-14T17:31:36.768Z,5.40
2022-09-14T17:34:05.580Z,5.50
2022-09-14T17:36:33.201Z,5.90
2022-09-14T17:39:02.496Z,5.20
2022-09-14T17:41:31.713Z,5.20
2022-09-14T17:44:01.564Z,4.60
2022-09-14T17:46:29.669Z,4.70
2022-09-14T17:48:58.683Z,6.70
2022-09-14T17:51:27.279Z,6.30
2022-09-14T17:53:56.534Z,5.60
2022-09-14T17:56:25.224Z,7.10
2022-09-14T17:59:04.261Z,5.70
2022-09-14T18:01:31.861Z,7.10
2022-09-14T18:04:02.277Z,7.10
2022-09-14T18:06:34.742Z,6.30
2022-09-14T18:09:06.321Z,4.60
2022-09-14T18:11:34.149Z,4.70
2022-09-14T18:14:02.520Z,3.70
2022-09-14T18:16:29.407Z,3.40
2022-09-14T18:18:57.763Z,3.20
2022-09-14T18:21:25.525Z,3.10
2022-09-14T18:23:54.079Z,3.30
2022-09-14T18:26:23.027Z,3.50
2022-09-14T18:28:51.296Z,4.40
2022-09-14T18:31:20.233Z,4.90
2022-09-14T18:33:49.019Z,5.20
2022-09-14T18:36:16.604Z,5.10
2022-09-14T18:38:43.921Z,3.80
2022-09-14T18:41:12.258Z,2.60
2022-09-14T18:43:43.451Z,3.50
2022-09-14T18:46:10.604Z,3.00
2022-09-14T18:48:38.910Z,2.60
2022-09-14T18:51:21.718Z,2.50
2022-09-14T18:53:49.333Z,2.70
2022-09-14T18:56:17.658Z,2.60
2022-09-14T18:58:46.396Z,2.60
2022-09-14T19:01:14.220Z,2.90
2022-09-14T19:03:43.038Z,2.80
2022-09-14T19:06:13.100Z,2.80
2022-09-14T19:08:40.190Z,2.80
2022-09-14T19:11:09.828Z,3.40
2022-09-14T19:13:37.118Z,3.70
2022-09-14T19:16:07.430Z,3.30
2022-09-14T19:18:35.334Z,4.00
2022-09-14T19:21:07.321Z,4.50
2022-09-14T19:23:35.669Z,4.50
2022-09-14T19:26:04.945Z,3.80
2022-09-14T19:28:32.102Z,4.20
2022-09-14T19:30:59.445Z,3.80
2022-09-14T19:33:26.310Z,3.90
2022-09-14T19:35:53.141Z,3.80
2022-09-14T19:38:19.946Z,3.30
2022-09-14T19:40:54.065Z,4.10
2022-09-14T19:43:20.966Z,4.30
2022-09-14T19:45:47.712Z,4.60
2022-09-14T19:48:14.976Z,4.20
2022-09-14T19:50:42.179Z,4.70
2022-09-14T19:53:09.426Z,4.80
2022-09-14T19:55:36.190Z,5.20
2022-09-14T19:58:02.952Z,4.70
2022-09-14T20:00:29.856Z,5.40
2022-09-14T20:02:56.807Z,5.10
2022-09-14T20:05:23.560Z,6.30
2022-09-14T20:07:50.332Z,6.50
2022-09-14T20:10:18.450Z,9.90
2022-09-14T20:12:46.528Z,9.60
2022-09-14T20:15:13.463Z,9.90
2022-09-14T20:17:40.336Z,11.70
2022-09-14T20:20:07.751Z,13.80
2022-09-14T20:22:34.515Z,13.40
2022-09-14T20:25:01.264Z,14.20
2022-09-14T20:27:28.076Z,15.40
2022-09-14T20:29:54.841Z,16.00
2022-09-14T20:32:21.582Z,16.70
2022-09-14T20:34:48.312Z,16.10
2022-09-14T20:37:15.196Z,17.40
2022-09-14T20:39:41.956Z,14.60
2022-09-14T20:42:09.719Z,14.10
2022-09-14T20:44:36.533Z,15.10
2022-09-14T20:47:03.367Z,13.10
2022-09-14T20:49:30.154Z,14.70
2022-09-14T20:51:58.975Z,15.50
2022-09-14T20:54:26.047Z,14.50
2022-09-14T20:56:52.899Z,16.20
2022-09-14T20:59:22.364Z,14.40
2022-09-14T21:01:50.626Z,16.00
2022-09-14T21:04:20.888Z,15.00
2022-09-14T21:06:53.139Z,15.20
2022-09-14T21:09:22.825Z,13.90
2022-09-14T21:11:49.825Z,12.70
2022-09-14T21:14:18.668Z,13.00
2022-09-14T21:16:47.559Z,12.50
2022-09-14T21:19:19.610Z,11.50
2022-09-14T21:21:47.794Z,11.90
2022-09-14T21:24:15.885Z,10.80
2022-09-14T21:26:44.120Z,9.10
2022-09-14T21:29:14.833Z,9.20
2022-09-14T21:31:41.954Z,10.10
2022-09-14T21:34:10.512Z,10.90
2022-09-14T21:36:40.591Z,10.20
2022-09-14T21:39:10.471Z,10.50
2022-09-14T21:41:38.910Z,11.40
2022-09-14T21:44:06.010Z,10.70
2022-09-14T21:46:33.009Z,13.20
2022-09-14T21:49:00.372Z,13.20
2022-09-14T21:51:30.396Z,11.80
2022-09-14T21:54:00.977Z,11.50
2022-09-14T21:56:33.493Z,12.00
2022-09-14T21:59:02.578Z,11.50
2022-09-14T22:01:30.304Z,9.80
2022-09-14T22:03:58.454Z,8.50
2022-09-14T22:06:27.686Z,8.40
2022-09-14T22:08:55.870Z,9.20
2022-09-14T22:11:25.765Z,9.40
2022-09-14T22:13:54.910Z,9.60
2022-09-14T22:16:23.156Z,10.10
2022-09-14T22:18:54.320Z,12.90
2022-09-14T22:21:23.011Z,12.30
2022-09-14T22:23:52.153Z,11.30
2022-09-14T22:26:20.288Z,12.50
2022-09-14T22:28:49.243Z,11.00
2022-09-14T22:31:18.215Z,11.80
2022-09-14T22:33:45.770Z,10.70
2022-09-14T22:36:13.258Z,10.70
2022-09-14T22:38:41.263Z,11.10
2022-09-14T22:41:12.408Z,10.50
2022-09-14T22:43:40.257Z,11.00
2022-09-14T22:46:08.533Z,10.70
2022-09-14T22:48:36.472Z,10.40
2022-09-14T22:51:04.723Z,11.00
2022-09-14T22:53:31.912Z,12.30
2022-09-14T22:55:59.135Z,11.40
2022-09-14T22:58:27.978Z,11.10
2022-09-14T23:00:54.786Z,10.80
2022-09-14T23:03:21.636Z,10.90
2022-09-14T23:05:51.067Z,10.60
2022-09-14T23:08:18.783Z,11.10
2022-09-14T23:10:47.100Z,11.10
2022-09-14T23:13:14.764Z,11.20
2022-09-14T23:15:42.004Z,11.10
2022-09-14T23:18:09.355Z,12.20
2022-09-14T23:20:37.914Z,10.30
2022-09-14T23:23:05.008Z,10.00
2022-09-14T23:25:34.613Z,11.10
2022-09-14T23:28:02.545Z,11.40
2022-09-14T23:30:29.424Z,11.90
2022-09-14T23:32:56.226Z,11.70
2022-09-14T23:35:23.034Z,11.90
2022-09-14T23:37:49.915Z,12.30
2022-09-14T23:40:18.463Z,10.60
2022-09-14T23:42:46.227Z,10.10
2022-09-14T23:45:13.356Z,9.10
2022-09-14T23:47:40.542Z,9.00
2022-09-14T23:50:08.383Z,9.30
2022-09-14T23:52:35.247Z,9.10
2022-09-14T23:55:01.999Z,9.30
2022-09-14T23:57:28.825Z,8.00
2022-09-14T23:59:55.576Z,9.60
